<?xml version="1.0" encoding="UTF-8" standalone="no" ?>
<gpx xmlns="http://www.topografix.com/GPX/1/1" xmlns:xsi="http://www.w3.org/2001/XMLSchema-instance" xsi:schemaLocation="http://www.topografix.com/GPX/1/1 http://www.topografix.com/GPX/1/1/gpx.xsd" version="1.1" creator="VisuGPX - https://www.visugpx.com">
  <metadata>
    <name>Course à pied le matin</name>
  </metadata>
  <trk>
    <name><![CDATA[Course à pied le matin_1]]></name>
    <trkseg>
      <trkpt lat="45.68581" lon="-1.18504">
        <ele>7.2</ele>
        <time>2023-10-28T07:26:30Z</time>
      </trkpt>
      <trkpt lat="45.6858" lon="-1.18503">
        <ele>7.2</ele>
        <time>2023-10-28T07:26:31Z</time>
      </trkpt>
      <trkpt lat="45.68565" lon="-1.18485">
        <ele>7.3</ele>
        <time>2023-10-28T07:26:39Z</time>
      </trkpt>
      <trkpt lat="45.68563" lon="-1.18484">
        <ele>7.3</ele>
        <time>2023-10-28T07:26:40Z</time>
      </trkpt>
      <trkpt lat="45.68549" lon="-1.18502">
        <ele>7.3</ele>
        <time>2023-10-28T07:26:46Z</time>
      </trkpt>
      <trkpt lat="45.68549" lon="-1.18531">
        <ele>7.2</ele>
        <time>2023-10-28T07:26:53Z</time>
      </trkpt>
      <trkpt lat="45.6855" lon="-1.1856">
        <ele>7</ele>
        <time>2023-10-28T07:26:59Z</time>
      </trkpt>
      <trkpt lat="45.6855" lon="-1.18588">
        <ele>6.7</ele>
        <time>2023-10-28T07:27:05Z</time>
      </trkpt>
      <trkpt lat="45.68559" lon="-1.18613">
        <ele>6.4</ele>
        <time>2023-10-28T07:27:11Z</time>
      </trkpt>
      <trkpt lat="45.68557" lon="-1.18637">
        <ele>6.1</ele>
        <time>2023-10-28T07:27:17Z</time>
      </trkpt>
      <trkpt lat="45.6854" lon="-1.18652">
        <ele>5.6</ele>
        <time>2023-10-28T07:27:23Z</time>
      </trkpt>
      <trkpt lat="45.68535" lon="-1.18654">
        <ele>5.6</ele>
        <time>2023-10-28T07:27:24Z</time>
      </trkpt>
      <trkpt lat="45.68516" lon="-1.18657">
        <ele>5.8</ele>
        <time>2023-10-28T07:27:35Z</time>
      </trkpt>
      <trkpt lat="45.68498" lon="-1.18646">
        <ele>6</ele>
        <time>2023-10-28T07:27:42Z</time>
      </trkpt>
      <trkpt lat="45.6849" lon="-1.1862">
        <ele>5.7</ele>
        <time>2023-10-28T07:27:48Z</time>
      </trkpt>
      <trkpt lat="45.68486" lon="-1.18593">
        <ele>5.3</ele>
        <time>2023-10-28T07:27:54Z</time>
      </trkpt>
      <trkpt lat="45.68483" lon="-1.18565">
        <ele>4.3</ele>
        <time>2023-10-28T07:28:00Z</time>
      </trkpt>
      <trkpt lat="45.68476" lon="-1.18539">
        <ele>3.4</ele>
        <time>2023-10-28T07:28:06Z</time>
      </trkpt>
      <trkpt lat="45.68468" lon="-1.18513">
        <ele>2.4</ele>
        <time>2023-10-28T07:28:12Z</time>
      </trkpt>
      <trkpt lat="45.6846" lon="-1.18488">
        <ele>1.5</ele>
        <time>2023-10-28T07:28:18Z</time>
      </trkpt>
      <trkpt lat="45.68451" lon="-1.18462">
        <ele>0.6</ele>
        <time>2023-10-28T07:28:24Z</time>
      </trkpt>
      <trkpt lat="45.68449" lon="-1.18457">
        <ele>0.8</ele>
        <time>2023-10-28T07:28:29Z</time>
      </trkpt>
      <trkpt lat="45.68457" lon="-1.18485">
        <ele>1.6</ele>
        <time>2023-10-28T07:28:35Z</time>
      </trkpt>
      <trkpt lat="45.68465" lon="-1.18511">
        <ele>2.5</ele>
        <time>2023-10-28T07:28:41Z</time>
      </trkpt>
      <trkpt lat="45.68474" lon="-1.18538">
        <ele>3.4</ele>
        <time>2023-10-28T07:28:48Z</time>
      </trkpt>
      <trkpt lat="45.68481" lon="-1.18564">
        <ele>4.3</ele>
        <time>2023-10-28T07:28:54Z</time>
      </trkpt>
      <trkpt lat="45.68487" lon="-1.18591">
        <ele>5.2</ele>
        <time>2023-10-28T07:29:00Z</time>
      </trkpt>
      <trkpt lat="45.68494" lon="-1.18604">
        <ele>5.6</ele>
        <time>2023-10-28T07:29:04Z</time>
      </trkpt>
      <trkpt lat="45.68513" lon="-1.1859">
        <ele>5.8</ele>
        <time>2023-10-28T07:29:10Z</time>
      </trkpt>
      <trkpt lat="45.68527" lon="-1.18572">
        <ele>6.1</ele>
        <time>2023-10-28T07:29:16Z</time>
      </trkpt>
      <trkpt lat="45.68538" lon="-1.18551">
        <ele>6.3</ele>
        <time>2023-10-28T07:29:22Z</time>
      </trkpt>
      <trkpt lat="45.68545" lon="-1.18527">
        <ele>6.5</ele>
        <time>2023-10-28T07:29:28Z</time>
      </trkpt>
      <trkpt lat="45.68559" lon="-1.18511">
        <ele>7.2</ele>
        <time>2023-10-28T07:29:37Z</time>
      </trkpt>
      <trkpt lat="45.6856" lon="-1.18511">
        <ele>7.2</ele>
        <time>2023-10-28T07:29:38Z</time>
      </trkpt>
      <trkpt lat="45.68562" lon="-1.1854">
        <ele>7.1</ele>
        <time>2023-10-28T07:29:46Z</time>
      </trkpt>
      <trkpt lat="45.68562" lon="-1.18567">
        <ele>6.9</ele>
        <time>2023-10-28T07:29:52Z</time>
      </trkpt>
      <trkpt lat="45.6856" lon="-1.18593">
        <ele>6.7</ele>
        <time>2023-10-28T07:29:58Z</time>
      </trkpt>
      <trkpt lat="45.68562" lon="-1.1862">
        <ele>6.5</ele>
        <time>2023-10-28T07:30:04Z</time>
      </trkpt>
      <trkpt lat="45.68569" lon="-1.18641">
        <ele>6.3</ele>
        <time>2023-10-28T07:30:10Z</time>
      </trkpt>
      <trkpt lat="45.68554" lon="-1.18659">
        <ele>5.8</ele>
        <time>2023-10-28T07:30:16Z</time>
      </trkpt>
      <trkpt lat="45.68536" lon="-1.18668">
        <ele>5.6</ele>
        <time>2023-10-28T07:30:22Z</time>
      </trkpt>
      <trkpt lat="45.68518" lon="-1.18662">
        <ele>5.8</ele>
        <time>2023-10-28T07:30:28Z</time>
      </trkpt>
      <trkpt lat="45.685" lon="-1.18655">
        <ele>6</ele>
        <time>2023-10-28T07:30:34Z</time>
      </trkpt>
      <trkpt lat="45.6849" lon="-1.18632">
        <ele>5.8</ele>
        <time>2023-10-28T07:30:40Z</time>
      </trkpt>
      <trkpt lat="45.68486" lon="-1.18607">
        <ele>5.6</ele>
        <time>2023-10-28T07:30:46Z</time>
      </trkpt>
      <trkpt lat="45.68483" lon="-1.1858">
        <ele>4.8</ele>
        <time>2023-10-28T07:30:53Z</time>
      </trkpt>
      <trkpt lat="45.68477" lon="-1.18552">
        <ele>3.8</ele>
        <time>2023-10-28T07:31:00Z</time>
      </trkpt>
      <trkpt lat="45.6847" lon="-1.18528">
        <ele>2.9</ele>
        <time>2023-10-28T07:31:06Z</time>
      </trkpt>
      <trkpt lat="45.68462" lon="-1.18502">
        <ele>1.9</ele>
        <time>2023-10-28T07:31:13Z</time>
      </trkpt>
      <trkpt lat="45.68453" lon="-1.18476">
        <ele>1</ele>
        <time>2023-10-28T07:31:20Z</time>
      </trkpt>
      <trkpt lat="45.68444" lon="-1.18453">
        <ele>0.1</ele>
        <time>2023-10-28T07:31:28Z</time>
      </trkpt>
      <trkpt lat="45.68445" lon="-1.18455">
        <ele>0.2</ele>
        <time>2023-10-28T07:31:29Z</time>
      </trkpt>
      <trkpt lat="45.68453" lon="-1.18479">
        <ele>1.2</ele>
        <time>2023-10-28T07:31:36Z</time>
      </trkpt>
      <trkpt lat="45.6846" lon="-1.18504">
        <ele>2</ele>
        <time>2023-10-28T07:31:42Z</time>
      </trkpt>
      <trkpt lat="45.68468" lon="-1.18531">
        <ele>3</ele>
        <time>2023-10-28T07:31:49Z</time>
      </trkpt>
      <trkpt lat="45.68476" lon="-1.18558">
        <ele>4</ele>
        <time>2023-10-28T07:31:56Z</time>
      </trkpt>
      <trkpt lat="45.68482" lon="-1.18585">
        <ele>4.9</ele>
        <time>2023-10-28T07:32:03Z</time>
      </trkpt>
      <trkpt lat="45.68494" lon="-1.18606">
        <ele>5.6</ele>
        <time>2023-10-28T07:32:10Z</time>
      </trkpt>
      <trkpt lat="45.68498" lon="-1.18605">
        <ele>5.7</ele>
        <time>2023-10-28T07:32:11Z</time>
      </trkpt>
      <trkpt lat="45.68513" lon="-1.18588">
        <ele>5.9</ele>
        <time>2023-10-28T07:32:17Z</time>
      </trkpt>
      <trkpt lat="45.68527" lon="-1.18572">
        <ele>6.1</ele>
        <time>2023-10-28T07:32:23Z</time>
      </trkpt>
      <trkpt lat="45.68535" lon="-1.18549">
        <ele>6.3</ele>
        <time>2023-10-28T07:32:29Z</time>
      </trkpt>
      <trkpt lat="45.68542" lon="-1.18521">
        <ele>6.5</ele>
        <time>2023-10-28T07:32:36Z</time>
      </trkpt>
      <trkpt lat="45.68558" lon="-1.18513">
        <ele>7.2</ele>
        <time>2023-10-28T07:32:46Z</time>
      </trkpt>
      <trkpt lat="45.68568" lon="-1.18534">
        <ele>7.1</ele>
        <time>2023-10-28T07:32:54Z</time>
      </trkpt>
      <trkpt lat="45.68568" lon="-1.18541">
        <ele>7.1</ele>
        <time>2023-10-28T07:32:57Z</time>
      </trkpt>
      <trkpt lat="45.68568" lon="-1.18548">
        <ele>7.1</ele>
        <time>2023-10-28T07:33:01Z</time>
      </trkpt>
      <trkpt lat="45.68577" lon="-1.18554">
        <ele>7</ele>
        <time>2023-10-28T07:33:06Z</time>
      </trkpt>
      <trkpt lat="45.68569" lon="-1.18569">
        <ele>6.9</ele>
        <time>2023-10-28T07:33:49Z</time>
      </trkpt>
      <trkpt lat="45.68567" lon="-1.1857">
        <ele>6.8</ele>
        <time>2023-10-28T07:33:50Z</time>
      </trkpt>
      <trkpt lat="45.68555" lon="-1.18594">
        <ele>6.6</ele>
        <time>2023-10-28T07:33:57Z</time>
      </trkpt>
      <trkpt lat="45.68561" lon="-1.18618">
        <ele>6.4</ele>
        <time>2023-10-28T07:34:02Z</time>
      </trkpt>
      <trkpt lat="45.68567" lon="-1.1864">
        <ele>6.1</ele>
        <time>2023-10-28T07:34:08Z</time>
      </trkpt>
      <trkpt lat="45.68552" lon="-1.1866">
        <ele>5.7</ele>
        <time>2023-10-28T07:34:14Z</time>
      </trkpt>
      <trkpt lat="45.68534" lon="-1.18667">
        <ele>5.6</ele>
        <time>2023-10-28T07:34:20Z</time>
      </trkpt>
      <trkpt lat="45.68514" lon="-1.18658">
        <ele>5.9</ele>
        <time>2023-10-28T07:34:27Z</time>
      </trkpt>
      <trkpt lat="45.68497" lon="-1.18647">
        <ele>6</ele>
        <time>2023-10-28T07:34:33Z</time>
      </trkpt>
      <trkpt lat="45.6849" lon="-1.18621">
        <ele>5.7</ele>
        <time>2023-10-28T07:34:39Z</time>
      </trkpt>
      <trkpt lat="45.68485" lon="-1.18592">
        <ele>5.2</ele>
        <time>2023-10-28T07:34:45Z</time>
      </trkpt>
      <trkpt lat="45.68479" lon="-1.18564">
        <ele>4.2</ele>
        <time>2023-10-28T07:34:51Z</time>
      </trkpt>
      <trkpt lat="45.68473" lon="-1.18539">
        <ele>3.3</ele>
        <time>2023-10-28T07:34:56Z</time>
      </trkpt>
      <trkpt lat="45.68465" lon="-1.18513">
        <ele>2.3</ele>
        <time>2023-10-28T07:35:02Z</time>
      </trkpt>
      <trkpt lat="45.68456" lon="-1.18487">
        <ele>1.4</ele>
        <time>2023-10-28T07:35:09Z</time>
      </trkpt>
      <trkpt lat="45.68448" lon="-1.18462">
        <ele>0.5</ele>
        <time>2023-10-28T07:35:16Z</time>
      </trkpt>
      <trkpt lat="45.68443" lon="-1.1845">
        <ele>0.1</ele>
        <time>2023-10-28T07:35:22Z</time>
      </trkpt>
      <trkpt lat="45.68452" lon="-1.18478">
        <ele>1.2</ele>
        <time>2023-10-28T07:35:29Z</time>
      </trkpt>
      <trkpt lat="45.68461" lon="-1.18505">
        <ele>2.1</ele>
        <time>2023-10-28T07:35:35Z</time>
      </trkpt>
      <trkpt lat="45.68469" lon="-1.1853">
        <ele>3</ele>
        <time>2023-10-28T07:35:41Z</time>
      </trkpt>
      <trkpt lat="45.68478" lon="-1.18554">
        <ele>3.9</ele>
        <time>2023-10-28T07:35:47Z</time>
      </trkpt>
      <trkpt lat="45.68485" lon="-1.18579">
        <ele>4.8</ele>
        <time>2023-10-28T07:35:54Z</time>
      </trkpt>
      <trkpt lat="45.68495" lon="-1.18602">
        <ele>5.6</ele>
        <time>2023-10-28T07:36:01Z</time>
      </trkpt>
      <trkpt lat="45.68512" lon="-1.1859">
        <ele>5.9</ele>
        <time>2023-10-28T07:36:07Z</time>
      </trkpt>
      <trkpt lat="45.68526" lon="-1.18571">
        <ele>6.1</ele>
        <time>2023-10-28T07:36:13Z</time>
      </trkpt>
      <trkpt lat="45.68537" lon="-1.18548">
        <ele>6.3</ele>
        <time>2023-10-28T07:36:19Z</time>
      </trkpt>
      <trkpt lat="45.68544" lon="-1.18521">
        <ele>6.5</ele>
        <time>2023-10-28T07:36:25Z</time>
      </trkpt>
      <trkpt lat="45.68557" lon="-1.18507">
        <ele>7.2</ele>
        <time>2023-10-28T07:36:32Z</time>
      </trkpt>
      <trkpt lat="45.6856" lon="-1.18513">
        <ele>7.2</ele>
        <time>2023-10-28T07:36:34Z</time>
      </trkpt>
      <trkpt lat="45.68561" lon="-1.18541">
        <ele>7.1</ele>
        <time>2023-10-28T07:36:40Z</time>
      </trkpt>
      <trkpt lat="45.68559" lon="-1.1857">
        <ele>6.9</ele>
        <time>2023-10-28T07:36:46Z</time>
      </trkpt>
      <trkpt lat="45.68558" lon="-1.18598">
        <ele>6.7</ele>
        <time>2023-10-28T07:36:52Z</time>
      </trkpt>
      <trkpt lat="45.68564" lon="-1.18622">
        <ele>6.5</ele>
        <time>2023-10-28T07:36:58Z</time>
      </trkpt>
      <trkpt lat="45.68571" lon="-1.18641">
        <ele>6.3</ele>
        <time>2023-10-28T07:37:03Z</time>
      </trkpt>
      <trkpt lat="45.68556" lon="-1.1866">
        <ele>5.9</ele>
        <time>2023-10-28T07:37:09Z</time>
      </trkpt>
      <trkpt lat="45.68538" lon="-1.18667">
        <ele>5.6</ele>
        <time>2023-10-28T07:37:15Z</time>
      </trkpt>
      <trkpt lat="45.6852" lon="-1.18657">
        <ele>6</ele>
        <time>2023-10-28T07:37:21Z</time>
      </trkpt>
      <trkpt lat="45.68508" lon="-1.18634">
        <ele>5.9</ele>
        <time>2023-10-28T07:37:27Z</time>
      </trkpt>
      <trkpt lat="45.68501" lon="-1.1861">
        <ele>5.7</ele>
        <time>2023-10-28T07:37:33Z</time>
      </trkpt>
      <trkpt lat="45.68487" lon="-1.18592">
        <ele>5.2</ele>
        <time>2023-10-28T07:37:39Z</time>
      </trkpt>
      <trkpt lat="45.68479" lon="-1.18564">
        <ele>4.2</ele>
        <time>2023-10-28T07:37:46Z</time>
      </trkpt>
      <trkpt lat="45.68472" lon="-1.1854">
        <ele>3.3</ele>
        <time>2023-10-28T07:37:52Z</time>
      </trkpt>
      <trkpt lat="45.68465" lon="-1.18516">
        <ele>2.4</ele>
        <time>2023-10-28T07:37:58Z</time>
      </trkpt>
      <trkpt lat="45.68458" lon="-1.18493">
        <ele>1.5</ele>
        <time>2023-10-28T07:38:04Z</time>
      </trkpt>
      <trkpt lat="45.68448" lon="-1.18467">
        <ele>0.7</ele>
        <time>2023-10-28T07:38:11Z</time>
      </trkpt>
      <trkpt lat="45.68442" lon="-1.18455">
        <ele>0.1</ele>
        <time>2023-10-28T07:38:16Z</time>
      </trkpt>
      <trkpt lat="45.6845" lon="-1.18479">
        <ele>1.1</ele>
        <time>2023-10-28T07:38:22Z</time>
      </trkpt>
      <trkpt lat="45.68459" lon="-1.18505">
        <ele>2</ele>
        <time>2023-10-28T07:38:28Z</time>
      </trkpt>
      <trkpt lat="45.68467" lon="-1.1853">
        <ele>2.9</ele>
        <time>2023-10-28T07:38:34Z</time>
      </trkpt>
      <trkpt lat="45.68475" lon="-1.18554">
        <ele>3.8</ele>
        <time>2023-10-28T07:38:40Z</time>
      </trkpt>
      <trkpt lat="45.68481" lon="-1.18579">
        <ele>4.7</ele>
        <time>2023-10-28T07:38:46Z</time>
      </trkpt>
      <trkpt lat="45.68489" lon="-1.18604">
        <ele>5.6</ele>
        <time>2023-10-28T07:38:52Z</time>
      </trkpt>
      <trkpt lat="45.68492" lon="-1.18605">
        <ele>5.6</ele>
        <time>2023-10-28T07:38:53Z</time>
      </trkpt>
      <trkpt lat="45.6851" lon="-1.18591">
        <ele>5.8</ele>
        <time>2023-10-28T07:38:59Z</time>
      </trkpt>
      <trkpt lat="45.68525" lon="-1.18571">
        <ele>6.1</ele>
        <time>2023-10-28T07:39:05Z</time>
      </trkpt>
      <trkpt lat="45.68536" lon="-1.18548">
        <ele>6.3</ele>
        <time>2023-10-28T07:39:11Z</time>
      </trkpt>
      <trkpt lat="45.68542" lon="-1.18522">
        <ele>6.5</ele>
        <time>2023-10-28T07:39:17Z</time>
      </trkpt>
      <trkpt lat="45.68557" lon="-1.1851">
        <ele>7.2</ele>
        <time>2023-10-28T07:39:25Z</time>
      </trkpt>
      <trkpt lat="45.68559" lon="-1.18516">
        <ele>7.2</ele>
        <time>2023-10-28T07:39:27Z</time>
      </trkpt>
      <trkpt lat="45.68558" lon="-1.18544">
        <ele>7.1</ele>
        <time>2023-10-28T07:39:33Z</time>
      </trkpt>
      <trkpt lat="45.68557" lon="-1.18572">
        <ele>6.9</ele>
        <time>2023-10-28T07:39:39Z</time>
      </trkpt>
      <trkpt lat="45.68555" lon="-1.18599">
        <ele>6.7</ele>
        <time>2023-10-28T07:39:45Z</time>
      </trkpt>
      <trkpt lat="45.68562" lon="-1.18625">
        <ele>6.4</ele>
        <time>2023-10-28T07:39:51Z</time>
      </trkpt>
      <trkpt lat="45.68567" lon="-1.18642">
        <ele>6.2</ele>
        <time>2023-10-28T07:39:56Z</time>
      </trkpt>
      <trkpt lat="45.68552" lon="-1.18659">
        <ele>5.8</ele>
        <time>2023-10-28T07:40:02Z</time>
      </trkpt>
      <trkpt lat="45.68532" lon="-1.18665">
        <ele>5.6</ele>
        <time>2023-10-28T07:40:09Z</time>
      </trkpt>
      <trkpt lat="45.68514" lon="-1.18657">
        <ele>5.9</ele>
        <time>2023-10-28T07:40:15Z</time>
      </trkpt>
      <trkpt lat="45.68496" lon="-1.18643">
        <ele>5.9</ele>
        <time>2023-10-28T07:40:22Z</time>
      </trkpt>
      <trkpt lat="45.68489" lon="-1.18618">
        <ele>5.7</ele>
        <time>2023-10-28T07:40:28Z</time>
      </trkpt>
      <trkpt lat="45.68486" lon="-1.1859">
        <ele>5.2</ele>
        <time>2023-10-28T07:40:34Z</time>
      </trkpt>
      <trkpt lat="45.68481" lon="-1.18563">
        <ele>4.2</ele>
        <time>2023-10-28T07:40:40Z</time>
      </trkpt>
      <trkpt lat="45.68475" lon="-1.18537">
        <ele>3.3</ele>
        <time>2023-10-28T07:40:46Z</time>
      </trkpt>
      <trkpt lat="45.68467" lon="-1.18511">
        <ele>2.3</ele>
        <time>2023-10-28T07:40:52Z</time>
      </trkpt>
      <trkpt lat="45.68458" lon="-1.18487">
        <ele>1.4</ele>
        <time>2023-10-28T07:40:58Z</time>
      </trkpt>
      <trkpt lat="45.68449" lon="-1.18464">
        <ele>0.6</ele>
        <time>2023-10-28T07:41:04Z</time>
      </trkpt>
      <trkpt lat="45.68443" lon="-1.18451">
        <ele>0.1</ele>
        <time>2023-10-28T07:41:10Z</time>
      </trkpt>
      <trkpt lat="45.68452" lon="-1.18474">
        <ele>1</ele>
        <time>2023-10-28T07:41:15Z</time>
      </trkpt>
      <trkpt lat="45.6846" lon="-1.18502">
        <ele>1.9</ele>
        <time>2023-10-28T07:41:21Z</time>
      </trkpt>
      <trkpt lat="45.68468" lon="-1.18529">
        <ele>2.9</ele>
        <time>2023-10-28T07:41:27Z</time>
      </trkpt>
      <trkpt lat="45.68475" lon="-1.18553">
        <ele>3.8</ele>
        <time>2023-10-28T07:41:33Z</time>
      </trkpt>
      <trkpt lat="45.68482" lon="-1.18578">
        <ele>4.7</ele>
        <time>2023-10-28T07:41:39Z</time>
      </trkpt>
      <trkpt lat="45.68488" lon="-1.18604">
        <ele>5.6</ele>
        <time>2023-10-28T07:41:45Z</time>
      </trkpt>
      <trkpt lat="45.68491" lon="-1.18606">
        <ele>5.6</ele>
        <time>2023-10-28T07:41:46Z</time>
      </trkpt>
      <trkpt lat="45.68508" lon="-1.18597">
        <ele>5.8</ele>
        <time>2023-10-28T07:41:51Z</time>
      </trkpt>
      <trkpt lat="45.68525" lon="-1.18578">
        <ele>6.1</ele>
        <time>2023-10-28T07:41:57Z</time>
      </trkpt>
      <trkpt lat="45.68536" lon="-1.18553">
        <ele>6.3</ele>
        <time>2023-10-28T07:42:03Z</time>
      </trkpt>
      <trkpt lat="45.68542" lon="-1.18526">
        <ele>6.5</ele>
        <time>2023-10-28T07:42:09Z</time>
      </trkpt>
      <trkpt lat="45.68556" lon="-1.18511">
        <ele>7.2</ele>
        <time>2023-10-28T07:42:17Z</time>
      </trkpt>
      <trkpt lat="45.68558" lon="-1.1854">
        <ele>7.1</ele>
        <time>2023-10-28T07:42:24Z</time>
      </trkpt>
      <trkpt lat="45.68556" lon="-1.1857">
        <ele>6.9</ele>
        <time>2023-10-28T07:42:30Z</time>
      </trkpt>
      <trkpt lat="45.68555" lon="-1.18597">
        <ele>6.7</ele>
        <time>2023-10-28T07:42:36Z</time>
      </trkpt>
      <trkpt lat="45.68562" lon="-1.18622">
        <ele>6.4</ele>
        <time>2023-10-28T07:42:42Z</time>
      </trkpt>
      <trkpt lat="45.68569" lon="-1.18641">
        <ele>6.2</ele>
        <time>2023-10-28T07:42:47Z</time>
      </trkpt>
      <trkpt lat="45.68553" lon="-1.18658">
        <ele>5.8</ele>
        <time>2023-10-28T07:42:53Z</time>
      </trkpt>
      <trkpt lat="45.68534" lon="-1.18665">
        <ele>5.6</ele>
        <time>2023-10-28T07:43:00Z</time>
      </trkpt>
      <trkpt lat="45.68517" lon="-1.18655">
        <ele>6</ele>
        <time>2023-10-28T07:43:06Z</time>
      </trkpt>
      <trkpt lat="45.68505" lon="-1.18631">
        <ele>5.9</ele>
        <time>2023-10-28T07:43:12Z</time>
      </trkpt>
      <trkpt lat="45.68498" lon="-1.18607">
        <ele>5.6</ele>
        <time>2023-10-28T07:43:18Z</time>
      </trkpt>
      <trkpt lat="45.68485" lon="-1.18587">
        <ele>5</ele>
        <time>2023-10-28T07:43:24Z</time>
      </trkpt>
      <trkpt lat="45.68478" lon="-1.18558">
        <ele>4</ele>
        <time>2023-10-28T07:43:31Z</time>
      </trkpt>
      <trkpt lat="45.68471" lon="-1.18533">
        <ele>3.1</ele>
        <time>2023-10-28T07:43:37Z</time>
      </trkpt>
      <trkpt lat="45.68463" lon="-1.18509">
        <ele>2.2</ele>
        <time>2023-10-28T07:43:43Z</time>
      </trkpt>
      <trkpt lat="45.68454" lon="-1.18484">
        <ele>1.3</ele>
        <time>2023-10-28T07:43:50Z</time>
      </trkpt>
      <trkpt lat="45.68446" lon="-1.1846">
        <ele>0.4</ele>
        <time>2023-10-28T07:43:57Z</time>
      </trkpt>
      <trkpt lat="45.68443" lon="-1.18459">
        <ele>0.6</ele>
        <time>2023-10-28T07:44:01Z</time>
      </trkpt>
      <trkpt lat="45.68453" lon="-1.18484">
        <ele>1.4</ele>
        <time>2023-10-28T07:44:07Z</time>
      </trkpt>
      <trkpt lat="45.68462" lon="-1.18509">
        <ele>2.3</ele>
        <time>2023-10-28T07:44:13Z</time>
      </trkpt>
      <trkpt lat="45.68469" lon="-1.18534">
        <ele>3.2</ele>
        <time>2023-10-28T07:44:19Z</time>
      </trkpt>
      <trkpt lat="45.68477" lon="-1.18562">
        <ele>4.2</ele>
        <time>2023-10-28T07:44:26Z</time>
      </trkpt>
      <trkpt lat="45.68484" lon="-1.18589">
        <ele>5.1</ele>
        <time>2023-10-28T07:44:33Z</time>
      </trkpt>
      <trkpt lat="45.68496" lon="-1.18606">
        <ele>5.6</ele>
        <time>2023-10-28T07:44:39Z</time>
      </trkpt>
      <trkpt lat="45.68514" lon="-1.1859">
        <ele>5.9</ele>
        <time>2023-10-28T07:44:45Z</time>
      </trkpt>
      <trkpt lat="45.68528" lon="-1.18569">
        <ele>6.1</ele>
        <time>2023-10-28T07:44:52Z</time>
      </trkpt>
      <trkpt lat="45.68537" lon="-1.18545">
        <ele>6.3</ele>
        <time>2023-10-28T07:44:58Z</time>
      </trkpt>
      <trkpt lat="45.68544" lon="-1.18518">
        <ele>6.5</ele>
        <time>2023-10-28T07:45:05Z</time>
      </trkpt>
      <trkpt lat="45.68561" lon="-1.18507">
        <ele>7.2</ele>
        <time>2023-10-28T07:45:14Z</time>
      </trkpt>
      <trkpt lat="45.68581" lon="-1.18506">
        <ele>10.4</ele>
        <time>2023-10-28T07:45:21Z</time>
      </trkpt>
      <trkpt lat="45.68595" lon="-1.18523">
        <ele>10.1</ele>
        <time>2023-10-28T07:45:25Z</time>
      </trkpt>
      <trkpt lat="45.68603" lon="-1.18535">
        <ele>9.7</ele>
        <time>2023-10-28T07:45:28Z</time>
      </trkpt>
      <trkpt lat="45.68603" lon="-1.18538">
        <ele>9.7</ele>
        <time>2023-10-28T07:45:30Z</time>
      </trkpt>
      <trkpt lat="45.68585" lon="-1.18533">
        <ele>11</ele>
        <time>2023-10-28T07:47:10Z</time>
      </trkpt>
      <trkpt lat="45.68573" lon="-1.18513">
        <ele>9.9</ele>
        <time>2023-10-28T07:47:16Z</time>
      </trkpt>
      <trkpt lat="45.68557" lon="-1.18496">
        <ele>6.3</ele>
        <time>2023-10-28T07:47:22Z</time>
      </trkpt>
      <trkpt lat="45.68548" lon="-1.18483">
        <ele>3.8</ele>
        <time>2023-10-28T07:47:31Z</time>
      </trkpt>
      <trkpt lat="45.68566" lon="-1.185">
        <ele>8.6</ele>
        <time>2023-10-28T07:47:46Z</time>
      </trkpt>
      <trkpt lat="45.68584" lon="-1.18518">
        <ele>10.7</ele>
        <time>2023-10-28T07:47:51Z</time>
      </trkpt>
      <trkpt lat="45.68598" lon="-1.18535">
        <ele>9.8</ele>
        <time>2023-10-28T07:47:57Z</time>
      </trkpt>
      <trkpt lat="45.68599" lon="-1.18539">
        <ele>9.8</ele>
        <time>2023-10-28T07:48:00Z</time>
      </trkpt>
      <trkpt lat="45.68612" lon="-1.18551">
        <ele>9.8</ele>
        <time>2023-10-28T07:48:29Z</time>
      </trkpt>
      <trkpt lat="45.68619" lon="-1.18556">
        <ele>9.7</ele>
        <time>2023-10-28T07:48:34Z</time>
      </trkpt>
      <trkpt lat="45.68621" lon="-1.18582">
        <ele>9.6</ele>
        <time>2023-10-28T07:48:46Z</time>
      </trkpt>
      <trkpt lat="45.68625" lon="-1.1859">
        <ele>9.1</ele>
        <time>2023-10-28T07:48:53Z</time>
      </trkpt>
      <trkpt lat="45.68625" lon="-1.18564">
        <ele>9.4</ele>
        <time>2023-10-28T07:49:02Z</time>
      </trkpt>
      <trkpt lat="45.6863" lon="-1.18551">
        <ele>9.5</ele>
        <time>2023-10-28T07:49:08Z</time>
      </trkpt>
      <trkpt lat="45.68627" lon="-1.18552">
        <ele>9.6</ele>
        <time>2023-10-28T07:49:12Z</time>
      </trkpt>
      <trkpt lat="45.68622" lon="-1.18577">
        <ele>9.4</ele>
        <time>2023-10-28T07:49:24Z</time>
      </trkpt>
      <trkpt lat="45.68635" lon="-1.186">
        <ele>8.8</ele>
        <time>2023-10-28T07:49:34Z</time>
      </trkpt>
      <trkpt lat="45.68649" lon="-1.18618">
        <ele>9</ele>
        <time>2023-10-28T07:49:39Z</time>
      </trkpt>
      <trkpt lat="45.68652" lon="-1.1863">
        <ele>9.1</ele>
        <time>2023-10-28T07:49:43Z</time>
      </trkpt>
      <trkpt lat="45.68639" lon="-1.1861">
        <ele>8.7</ele>
        <time>2023-10-28T07:49:48Z</time>
      </trkpt>
      <trkpt lat="45.68627" lon="-1.18589">
        <ele>9.1</ele>
        <time>2023-10-28T07:49:53Z</time>
      </trkpt>
      <trkpt lat="45.68626" lon="-1.18583">
        <ele>9.2</ele>
        <time>2023-10-28T07:49:54Z</time>
      </trkpt>
      <trkpt lat="45.68626" lon="-1.18561">
        <ele>9.5</ele>
        <time>2023-10-28T07:49:57Z</time>
      </trkpt>
      <trkpt lat="45.68627" lon="-1.18549">
        <ele>9.7</ele>
        <time>2023-10-28T07:49:59Z</time>
      </trkpt>
      <trkpt lat="45.68626" lon="-1.18542">
        <ele>9.7</ele>
        <time>2023-10-28T07:50:01Z</time>
      </trkpt>
      <trkpt lat="45.68625" lon="-1.1854">
        <ele>9.8</ele>
        <time>2023-10-28T07:50:03Z</time>
      </trkpt>
      <trkpt lat="45.68626" lon="-1.18541">
        <ele>9.7</ele>
        <time>2023-10-28T07:50:04Z</time>
      </trkpt>
    </trkseg>
  </trk>
</gpx>